Ronnie Rogers — WDD2270 — position and weather

sailwx.info

Track history (hours):
 
Tides and Currents Weather Stations Pressure Air Temp Water Temp Dewpoint Dewpoint Depression Visibility Wind Speed Wind Dir Waves Ship Positions

Ronnie Rogers

Owner: Florida Marine Transporters, Inc., Mandeville, LA. More information available from US FCC via Universal Licensing System and Coast Guard Vessel Documentation Center.

Last reported at 2015-Apr-01 17:29 UTC. Time now 2015-Apr-02 01:26 UTC.
Position N 29°22' W 094°48'.

Length 27 m; draft 3 m.

Type: Towing. MMSI: 367113160.

Date/timePositionNaut miles runAvg speedWind from/ knotsBaromVisibWave heightAir tempDewpointWater temp
2015-Apr-01 17:29N 29°22' W 094°48'6 6.0
2015-Apr-01 16:33N 29°27' W 094°51'6 5.8
2015-Apr-01 15:33N 29°32' W 094°54'5 5.4
2015-Apr-01 14:33N 29°37' W 094°57'6 5.6
2015-Apr-01 13:33N 29°42' W 095°00'5 4.9
2015-Apr-01 12:33N 29°45' W 095°04'5 4.6
2015-Apr-01 11:33N 29°44' W 095°09'3 0.2
2015-Mar-31 18:18N 29°44' W 095°12'0 0.0
2015-Mar-31 17:33N 29°44' W 095°12'0 0.0
2015-Mar-31 16:33N 29°44' W 095°12'0 0.0
2015-Mar-31 15:33N 29°44' W 095°12'0 0.0
2015-Mar-31 14:33N 29°44' W 095°12'0 0.0
2015-Mar-31 13:33N 29°44' W 095°12'1 0.2
2015-Mar-31 08:13N 29°45' W 095°11'4 5.0
2015-Mar-31 07:30N 29°44' W 095°07'4 4.1
2015-Mar-31 06:29N 29°47' W 095°04'0 0.1
2015-Mar-31 05:33N 29°47' W 095°04'2 1.5
2015-Mar-31 04:28N 29°46' W 095°05'1 0.6
2015-Mar-31 03:33N 29°46' W 095°05'1 0.8
2015-Mar-31 02:31N 29°46' W 095°05'1 0.4
2015-Mar-30 23:33N 29°47' W 095°04'2 0.2
2015-Mar-30 13:16N 29°46' W 095°06'1 0.1
2015-Mar-30 06:30N 29°46' W 095°06'2 1.6
2015-Mar-30 05:33N 29°47' W 095°04'2 1.6
2015-Mar-30 04:33N 29°46' W 095°05'2 1.9
2015-Mar-30 03:33N 29°47' W 095°05'0 0.0
2015-Mar-30 01:21N 29°47' W 095°05'0 0.0
2015-Mar-30 00:20N 29°47' W 095°05'1 1.1
2015-Mar-29 23:33N 29°47' W 095°04'1 1.4
2015-Mar-29 22:31N 29°46' W 095°05'0 0.1
2015-Mar-29 21:33N 29°46' W 095°05'5 5.1
2015-Mar-29 20:33N 29°42' W 095°01'5 4.8
2015-Mar-29 19:33N 29°38' W 094°58'6 6.1
2015-Mar-29 18:33N 29°33' W 094°54'6 6.3
2015-Mar-29 17:32N 29°27' W 094°51'  
Track history (hours):
 
Tides and Currents Weather Stations Pressure Air Temp Water Temp Dewpoint Dewpoint Depression Visibility Wind Speed Wind Dir Waves Ship Positions

Ronnie Rogers

Owner: Florida Marine Transporters, Inc., Mandeville, LA. More information available from US FCC via Universal Licensing System and Coast Guard Vessel Documentation Center.

Last reported at 2015-Apr-01 17:29 UTC. Time now 2015-Apr-02 01:26 UTC.
Position N 29°22' W 094°48'.

Length 27 m; draft 3 m.

Type: Towing. MMSI: 367113160.

Date/timePositionNaut miles runAvg speedWind from/ knotsBaromVisibWave heightAir tempDewpointWater temp
2015-Apr-01 17:29N 29°22' W 094°48'6 6.0
2015-Apr-01 16:33N 29°27' W 094°51'6 5.8
2015-Apr-01 15:33N 29°32' W 094°54'5 5.4
2015-Apr-01 14:33N 29°37' W 094°57'6 5.6
2015-Apr-01 13:33N 29°42' W 095°00'5 4.9
2015-Apr-01 12:33N 29°45' W 095°04'5 4.6
2015-Apr-01 11:33N 29°44' W 095°09'3 0.2
2015-Mar-31 18:18N 29°44' W 095°12'0 0.0
2015-Mar-31 17:33N 29°44' W 095°12'0 0.0
2015-Mar-31 16:33N 29°44' W 095°12'0 0.0
2015-Mar-31 15:33N 29°44' W 095°12'0 0.0
2015-Mar-31 14:33N 29°44' W 095°12'0 0.0
2015-Mar-31 13:33N 29°44' W 095°12'1 0.2
2015-Mar-31 08:13N 29°45' W 095°11'4 5.0
2015-Mar-31 07:30N 29°44' W 095°07'4 4.1
2015-Mar-31 06:29N 29°47' W 095°04'0 0.1
2015-Mar-31 05:33N 29°47' W 095°04'2 1.5
2015-Mar-31 04:28N 29°46' W 095°05'1 0.6
2015-Mar-31 03:33N 29°46' W 095°05'1 0.8
2015-Mar-31 02:31N 29°46' W 095°05'1 0.4
2015-Mar-30 23:33N 29°47' W 095°04'2 0.2
2015-Mar-30 13:16N 29°46' W 095°06'1 0.1
2015-Mar-30 06:30N 29°46' W 095°06'2 1.6
2015-Mar-30 05:33N 29°47' W 095°04'2 1.6
2015-Mar-30 04:33N 29°46' W 095°05'2 1.9
2015-Mar-30 03:33N 29°47' W 095°05'0 0.0
2015-Mar-30 01:21N 29°47' W 095°05'0 0.0
2015-Mar-30 00:20N 29°47' W 095°05'1 1.1
2015-Mar-29 23:33N 29°47' W 095°04'1 1.4
2015-Mar-29 22:31N 29°46' W 095°05'0 0.1
2015-Mar-29 21:33N 29°46' W 095°05'5 5.1
2015-Mar-29 20:33N 29°42' W 095°01'5 4.8
2015-Mar-29 19:33N 29°38' W 094°58'6 6.1
2015-Mar-29 18:33N 29°33' W 094°54'6 6.3
2015-Mar-29 17:32N 29°27' W 094°51'  

Dump ship's entire track history